createdAt,value
2018-05-26T00:01:37.943Z,97270.04
2018-05-26T00:04:06.125Z,97258.94
2018-05-26T00:06:34.305Z,97256.81
2018-05-26T00:09:02.486Z,97267.06
2018-05-26T00:11:30.680Z,97261.08
2018-05-26T00:13:58.911Z,97261.94
2018-05-26T00:16:27.138Z,97253.84
2018-05-26T00:18:55.318Z,97248.75
2018-05-26T00:21:26.735Z,97249.17
2018-05-26T00:23:54.897Z,97253.89
2018-05-26T00:26:26.921Z,97257.27
2018-05-26T00:28:55.184Z,97254.28
2018-05-26T00:31:28.820Z,97255.58
2018-05-26T00:33:58.336Z,97259.42
2018-05-26T00:36:26.527Z,97263.69
2018-05-26T00:38:54.717Z,97263.70
2018-05-26T00:41:22.875Z,97265.84
2018-05-26T00:46:39.360Z,97260.73
2018-05-26T00:49:07.607Z,97263.30
2018-05-26T00:51:36.112Z,97259.01
2018-05-26T00:54:04.318Z,97259.89
2018-05-26T00:56:32.513Z,97262.45
2018-05-26T00:59:00.695Z,97259.04
2018-05-26T01:01:28.901Z,97258.63
2018-05-26T01:03:57.071Z,97262.89
2018-05-26T01:06:26.306Z,97265.03
2018-05-26T01:08:54.477Z,97263.34
2018-05-26T01:11:22.668Z,97265.03
2018-05-26T01:13:50.830Z,97262.48
2018-05-26T01:16:19.033Z,97261.63
2018-05-26T01:18:47.206Z,97264.63
2018-05-26T01:21:16.203Z,97267.61
2018-05-26T01:23:44.391Z,97267.62
2018-05-26T01:26:14.228Z,97268.06
2018-05-26T01:28:52.660Z,97268.03
2018-05-26T01:31:20.843Z,97266.34
2018-05-26T01:33:49.017Z,97257.85
2018-05-26T01:36:23.285Z,97257.01
2018-05-26T01:38:51.479Z,97258.28
2018-05-26T01:41:21.284Z,97265.97
2018-05-26T01:44:06.259Z,97265.10
2018-05-26T01:46:34.441Z,97261.28
2018-05-26T01:49:02.657Z,97256.58
2018-05-26T01:51:30.826Z,97254.88
2018-05-26T01:53:58.995Z,97256.59
2018-05-26T01:56:27.185Z,97261.28
2018-05-26T01:58:55.334Z,97261.72
2018-05-26T02:01:26.006Z,97260.86
2018-05-26T02:03:54.185Z,97254.06
2018-05-26T02:06:22.367Z,97257.87
2018-05-26T02:08:50.534Z,97274.48
2018-05-26T02:11:18.765Z,97273.64
2018-05-26T02:13:48.190Z,97268.94
2018-05-26T02:16:16.365Z,97269.37
2018-05-26T02:18:44.565Z,97272.34
2018-05-26T02:21:12.761Z,97277.45
2018-05-26T02:23:41.283Z,97280.86
2018-05-26T02:26:14.375Z,97280.45
2018-05-26T02:28:42.531Z,97274.05
2018-05-26T02:31:10.694Z,97279.58
2018-05-26T02:33:38.872Z,97284.70
2018-05-26T02:36:10.110Z,97288.52
2018-05-26T02:38:40.676Z,97289.38
2018-05-26T02:41:08.841Z,97292.78
2018-05-26T02:43:37.049Z,97307.69
2018-05-26T02:46:05.247Z,97291.92
2018-05-26T02:48:33.443Z,97288.09
2018-05-26T02:51:01.607Z,97286.84
2018-05-26T02:53:29.801Z,97280.01
2018-05-26T02:55:57.977Z,97280.86
2018-05-26T02:58:26.171Z,97278.74
2018-05-26T03:00:54.819Z,97284.69
2018-05-26T03:03:22.989Z,97284.27
2018-05-26T03:05:56.779Z,97288.53
2018-05-26T03:08:30.573Z,97295.33
2018-05-26T03:11:04.481Z,97291.06
2018-05-26T03:13:38.248Z,97292.34
2018-05-26T03:16:13.073Z,97291.91
2018-05-26T03:18:41.241Z,97296.61
2018-05-26T03:21:09.421Z,97293.64
2018-05-26T03:23:38.289Z,97294.91
2018-05-26T03:26:09.479Z,97295.34
2018-05-26T03:28:37.733Z,97291.08
2018-05-26T03:31:05.903Z,97291.08
2018-05-26T03:33:34.069Z,97296.61
2018-05-26T03:36:02.249Z,97299.58
2018-05-26T03:38:30.417Z,97305.09
2018-05-26T03:40:58.594Z,97307.23
2018-05-26T03:43:26.760Z,97305.11
2018-05-26T03:45:54.917Z,97309.36
2018-05-26T03:48:23.073Z,97305.09
2018-05-26T03:50:51.232Z,97304.69
2018-05-26T03:53:19.417Z,97299.56
2018-05-26T03:55:59.384Z,97301.28
2018-05-26T03:58:39.294Z,97296.61
2018-05-26T04:01:07.775Z,97295.33
2018-05-26T04:03:35.992Z,97303.41
2018-05-26T04:06:08.076Z,97306.38
2018-05-26T04:08:36.209Z,97305.97
2018-05-26T04:11:04.395Z,97310.63
2018-05-26T04:13:32.551Z,97311.92
2018-05-26T04:16:00.734Z,97318.72
2018-05-26T04:18:30.555Z,97313.62
2018-05-26T04:21:02.432Z,97308.10
2018-05-26T04:23:30.607Z,97311.07
2018-05-26T04:25:58.803Z,97308.50
2018-05-26T04:28:26.975Z,97313.20
2018-05-26T04:30:55.140Z,97311.08
2018-05-26T04:33:26.757Z,97320.00
2018-05-26T04:35:54.947Z,97325.95
2018-05-26T04:38:23.157Z,97322.55
2018-05-26T04:40:51.339Z,97318.73
2018-05-26T04:43:19.509Z,97323.41
2018-05-26T04:45:47.697Z,97320.41
2018-05-26T04:48:16.286Z,97325.55
2018-05-26T04:50:44.446Z,97318.29
2018-05-26T04:53:12.633Z,97320.87
2018-05-26T04:55:40.791Z,97314.45
2018-05-26T04:58:08.993Z,97321.69
2018-05-26T05:00:37.178Z,97326.40
2018-05-26T05:03:05.367Z,97334.05
2018-05-26T05:05:33.539Z,97335.31
2018-05-26T05:08:01.745Z,97345.53
2018-05-26T05:10:29.925Z,97345.53
2018-05-26T05:12:58.088Z,97353.20
2018-05-26T05:15:26.273Z,97349.80
2018-05-26T05:17:54.439Z,97354.48
2018-05-26T05:20:22.619Z,97349.81
2018-05-26T05:22:50.801Z,97353.63
2018-05-26T05:25:18.978Z,97357.04
2018-05-26T05:27:47.149Z,97356.17
2018-05-26T05:30:15.365Z,97357.86
2018-05-26T05:32:43.523Z,97356.59
2018-05-26T05:35:11.718Z,97354.02
2018-05-26T05:37:41.121Z,97357.86
2018-05-26T05:40:09.321Z,97356.96
2018-05-26T05:42:37.517Z,97357.41
2018-05-26T05:45:05.693Z,97359.95
2018-05-26T05:47:33.881Z,97353.98
2018-05-26T05:50:03.489Z,97352.70
2018-05-26T05:52:31.675Z,97360.81
2018-05-26T05:54:59.844Z,97360.84
2018-05-26T05:57:28.021Z,97357.41
2018-05-26T05:59:56.204Z,97372.75
2018-05-26T06:02:28.229Z,97370.21
2018-05-26T06:04:56.424Z,97376.60
2018-05-26T06:07:24.602Z,97381.27
2018-05-26T06:09:52.761Z,97375.73
2018-05-26T06:12:20.917Z,97383.83
2018-05-26T06:14:49.123Z,97388.92
2018-05-26T06:17:17.308Z,97388.08
2018-05-26T06:19:45.484Z,97397.44
2018-05-26T06:22:17.470Z,97391.04
2018-05-26T06:24:45.618Z,97393.58
2018-05-26T06:27:13.779Z,97397.39
2018-05-26T06:29:47.756Z,97399.47
2018-05-26T06:32:15.926Z,97397.34
2018-05-26T06:34:44.114Z,97397.74
2018-05-26T06:37:12.278Z,97402.82
2018-05-26T06:39:46.302Z,97392.98
2018-05-26T06:42:14.471Z,97393.80
2018-05-26T06:44:42.637Z,97401.04
2018-05-26T06:47:10.836Z,97400.20
2018-05-26T06:49:39.962Z,97388.28
2018-05-26T06:52:10.505Z,97385.72
2018-05-26T06:54:39.352Z,97386.56
2018-05-26T06:57:09.152Z,97381.45
2018-05-26T06:59:37.349Z,97385.27
2018-05-26T07:02:05.545Z,97386.52
2018-05-26T07:04:33.725Z,97381.38
2018-05-26T07:07:14.390Z,97393.73
2018-05-26T07:09:42.593Z,97389.43
2018-05-26T07:12:10.760Z,97391.58
2018-05-26T07:14:39.492Z,97388.98
2018-05-26T07:17:07.678Z,97399.17
2018-05-26T07:19:35.852Z,97396.98
2018-05-26T07:22:04.060Z,97396.55
2018-05-26T07:24:32.238Z,97397.80
2018-05-26T07:27:00.424Z,97398.24
2018-05-26T07:29:28.626Z,97397.80
2018-05-26T07:31:58.093Z,97400.38
2018-05-26T07:34:27.242Z,97393.04
2018-05-26T07:36:55.418Z,97402.40
2018-05-26T07:39:23.611Z,97407.56
2018-05-26T07:41:51.828Z,97399.84
2018-05-26T07:44:26.176Z,97399.34
2018-05-26T07:46:54.380Z,97405.29
2018-05-26T07:49:22.564Z,97402.69
2018-05-26T07:51:52.602Z,97403.48
2018-05-26T07:54:20.787Z,97409.44
2018-05-26T07:56:48.998Z,97399.53
2018-05-26T07:59:20.790Z,97398.97
2018-05-26T08:01:51.926Z,97400.59
2018-05-26T08:04:20.115Z,97403.44
2018-05-26T08:06:48.322Z,97408.11
2018-05-26T08:09:16.499Z,97405.50
2018-05-26T08:11:44.675Z,97400.34
2018-05-26T08:14:12.876Z,97399.77
2018-05-26T08:16:41.072Z,97404.04
2018-05-26T08:19:10.161Z,97403.10
2018-05-26T08:21:38.355Z,97401.69
2018-05-26T08:24:06.532Z,97396.08
2018-05-26T08:26:34.725Z,97401.27
2018-05-26T08:29:02.934Z,97399.10
2018-05-26T08:31:31.119Z,97388.28
2018-05-26T08:33:59.375Z,97390.88
2018-05-26T08:36:27.572Z,97387.72
2018-05-26T08:38:55.750Z,97391.05
2018-05-26T08:41:23.965Z,97384.56
2018-05-26T08:43:52.173Z,97389.50
2018-05-26T08:46:20.353Z,97386.77
2018-05-26T08:48:48.519Z,97385.27
2018-05-26T08:51:17.167Z,97382.61
2018-05-26T08:53:45.355Z,97375.98
2018-05-26T08:56:13.612Z,97385.17
2018-05-26T08:58:41.775Z,97376.39
2018-05-26T09:01:10.526Z,97382.72
2018-05-26T09:03:38.715Z,97372.41
2018-05-26T09:06:06.882Z,97369.70
2018-05-26T09:08:35.049Z,97371.65
2018-05-26T09:11:03.217Z,97370.20
2018-05-26T09:13:35.080Z,97366.06
2018-05-26T09:16:03.269Z,97372.89
2018-05-26T09:18:31.423Z,97367.31
2018-05-26T09:20:59.636Z,97372.06
2018-05-26T09:23:27.890Z,97378.43
2018-05-26T09:25:58.986Z,97378.61
2018-05-26T09:28:27.199Z,97388.73
2018-05-26T09:30:55.388Z,97393.27
2018-05-26T09:33:24.616Z,97384.10
2018-05-26T09:35:52.817Z,97381.66
2018-05-26T09:38:20.982Z,97373.77
2018-05-26T09:40:49.177Z,97378.72
2018-05-26T09:43:17.346Z,97375.09
2018-05-26T09:45:45.550Z,97371.31
2018-05-26T09:48:13.722Z,97368.52
2018-05-26T09:50:41.898Z,97369.26
2018-05-26T09:53:10.125Z,97366.31
2018-05-26T09:55:41.553Z,97359.13
2018-05-26T09:58:09.744Z,97357.08
2018-05-26T10:00:37.930Z,97363.05
2018-05-26T10:03:06.140Z,97361.97
2018-05-26T10:05:34.300Z,97362.26
2018-05-26T10:08:02.473Z,97362.97
2018-05-26T10:10:32.851Z,97362.05
2018-05-26T10:13:01.030Z,97363.01
2018-05-26T10:15:29.182Z,97364.03
2018-05-26T10:18:02.076Z,97361.24
2018-05-26T10:20:30.233Z,97363.25
2018-05-26T10:22:58.416Z,97361.41
2018-05-26T10:25:26.563Z,97359.66
2018-05-26T10:27:54.747Z,97358.37
2018-05-26T10:30:22.976Z,97359.00
2018-05-26T10:32:51.151Z,97358.67
2018-05-26T10:35:19.815Z,97353.75
2018-05-26T10:37:47.993Z,97357.88
2018-05-26T10:40:19.811Z,97353.36
2018-05-26T10:42:47.976Z,97356.95
2018-05-26T10:45:16.138Z,97353.70
2018-05-26T10:47:44.568Z,97350.17
2018-05-26T10:50:16.562Z,97354.20
2018-05-26T10:52:44.732Z,97351.98
2018-05-26T10:55:13.576Z,97352.05
2018-05-26T10:57:41.743Z,97353.59
2018-05-26T11:00:09.901Z,97353.84
2018-05-26T11:02:38.100Z,97354.83
2018-05-26T11:05:06.263Z,97358.83
2018-05-26T11:07:34.434Z,97353.95
2018-05-26T11:10:02.638Z,97357.89
2018-05-26T11:12:30.806Z,97353.27
2018-05-26T11:14:58.937Z,97351.53
2018-05-26T11:17:27.138Z,97353.94
2018-05-26T11:19:55.318Z,97347.58
2018-05-26T11:22:23.492Z,97345.41
2018-05-26T11:24:51.675Z,97340.23
2018-05-26T11:27:19.942Z,97342.16
2018-05-26T11:29:48.182Z,97339.28
2018-05-26T11:32:20.144Z,97339.70
2018-05-26T11:34:48.298Z,97335.01
2018-05-26T11:37:16.462Z,97332.72
2018-05-26T11:39:44.638Z,97336.81
2018-05-26T11:42:13.045Z,97325.22
2018-05-26T11:44:41.243Z,97332.11
2018-05-26T11:47:09.399Z,97321.86
2018-05-26T11:49:37.575Z,97322.50
2018-05-26T11:52:05.741Z,97326.37
2018-05-26T11:54:33.911Z,97327.23
2018-05-26T11:57:02.084Z,97322.89
2018-05-26T11:59:30.261Z,97320.30
2018-05-26T12:01:58.429Z,97318.09
2018-05-26T12:04:26.600Z,97316.78
2018-05-26T12:06:54.776Z,97321.85
2018-05-26T12:09:25.349Z,97327.70
2018-05-26T12:11:53.556Z,97318.63
2018-05-26T12:14:21.713Z,97317.34
2018-05-26T12:16:49.879Z,97315.97
2018-05-26T12:19:18.248Z,97310.17
2018-05-26T12:21:46.453Z,97308.90
2018-05-26T12:26:47.344Z,97320.65
2018-05-26T12:29:16.626Z,97310.48
2018-05-26T12:31:45.768Z,97307.59
2018-05-26T12:34:14.894Z,97308.88
2018-05-26T12:36:44.087Z,97312.19
2018-05-26T12:39:12.263Z,97313.50
2018-05-26T12:41:40.428Z,97305.42
2018-05-26T12:44:08.592Z,97295.69
2018-05-26T12:46:36.758Z,97294.59
2018-05-26T12:49:04.952Z,97297.11
2018-05-26T12:51:35.607Z,97301.84
2018-05-26T12:54:04.551Z,97298.38
2018-05-26T12:56:32.702Z,97294.69
2018-05-26T12:59:00.855Z,97298.49
2018-05-26T13:01:29.027Z,97301.88
2018-05-26T13:03:57.197Z,97297.64
2018-05-26T13:06:25.402Z,97304.66
2018-05-26T13:08:53.581Z,97301.44
2018-05-26T13:11:21.782Z,97300.72
2018-05-26T13:13:49.955Z,97299.96
2018-05-26T13:16:20.922Z,97294.34
2018-05-26T13:18:49.829Z,97297.41
2018-05-26T13:21:21.750Z,97288.91
2018-05-26T13:23:49.902Z,97286.31
2018-05-26T13:26:18.080Z,97288.81
2018-05-26T13:28:46.256Z,97293.20
2018-05-26T13:31:14.520Z,97292.17
2018-05-26T13:33:42.711Z,97283.88
2018-05-26T13:36:10.885Z,97292.57
2018-05-26T13:38:39.054Z,97280.87
2018-05-26T13:41:07.231Z,97278.27
2018-05-26T13:43:35.417Z,97289.82
2018-05-26T13:46:03.627Z,97285.01
2018-05-26T13:48:31.838Z,97280.18
2018-05-26T13:51:00.014Z,97278.44
2018-05-26T13:53:28.282Z,97280.06
2018-05-26T13:55:56.529Z,97277.42
2018-05-26T13:58:24.601Z,97278.64
2018-05-26T14:00:52.778Z,97279.41
2018-05-26T14:03:21.242Z,97276.28
2018-05-26T14:05:50.519Z,97270.00
2018-05-26T14:08:18.706Z,97272.32
2018-05-26T14:10:46.898Z,97262.52
2018-05-26T14:13:15.074Z,97256.99
2018-05-26T14:15:49.584Z,97261.06
2018-05-26T14:18:17.765Z,97259.06
2018-05-26T14:20:45.944Z,97259.34
2018-05-26T14:23:14.120Z,97250.88
2018-05-26T14:25:42.295Z,97257.54
2018-05-26T14:28:11.061Z,97252.69
2018-05-26T14:30:39.295Z,97260.14
2018-05-26T14:33:07.405Z,97247.38
2018-05-26T14:35:35.574Z,97250.10
2018-05-26T14:38:03.754Z,97249.75
2018-05-26T14:40:32.026Z,97242.69
2018-05-26T14:43:00.199Z,97246.92
2018-05-26T14:45:29.276Z,97241.41
2018-05-26T14:47:57.465Z,97237.14
2018-05-26T14:50:25.638Z,97235.88
2018-05-26T14:52:54.548Z,97231.48
2018-05-26T14:55:22.715Z,97231.63
2018-05-26T14:57:50.896Z,97240.23
2018-05-26T15:00:19.078Z,97231.10
2018-05-26T15:02:47.295Z,97234.87
2018-05-26T15:05:15.455Z,97238.88
2018-05-26T15:07:43.668Z,97234.98
2018-05-26T15:10:11.824Z,97238.60
2018-05-26T15:12:40.037Z,97228.67
2018-05-26T15:15:14.170Z,97240.02
2018-05-26T15:17:42.340Z,97239.69
2018-05-26T15:20:10.493Z,97233.38
2018-05-26T15:22:38.678Z,97229.06
2018-05-26T15:27:52.594Z,97231.70
2018-05-26T15:30:20.780Z,97231.59
2018-05-26T15:32:48.959Z,97225.84
2018-05-26T15:35:17.152Z,97229.41
2018-05-26T15:37:45.319Z,97224.31
2018-05-26T15:40:13.483Z,97223.50
2018-05-26T15:42:41.648Z,97226.64
2018-05-26T15:45:13.152Z,97216.67
2018-05-26T15:47:41.317Z,97223.40
2018-05-26T15:50:09.487Z,97220.69
2018-05-26T15:52:37.666Z,97219.50
2018-05-26T15:55:05.819Z,97220.11
2018-05-26T15:57:34.003Z,97216.71
2018-05-26T16:07:15.270Z,97214.80
2018-05-26T16:09:43.431Z,97214.03
2018-05-26T16:12:11.588Z,97210.64
2018-05-26T16:14:39.763Z,97216.62
2018-05-26T16:17:15.803Z,97220.27
2018-05-26T16:19:43.978Z,97219.20
2018-05-26T16:22:12.142Z,97226.70
2018-05-26T16:24:40.324Z,97226.15
2018-05-26T16:27:08.446Z,97227.34
2018-05-26T16:29:36.986Z,97229.11
2018-05-26T16:32:05.135Z,97232.13
2018-05-26T16:34:33.299Z,97231.75
2018-05-26T16:37:01.482Z,97237.81
2018-05-26T16:39:29.641Z,97239.48
2018-05-26T16:41:58.510Z,97231.06
2018-05-26T16:44:26.661Z,97225.80
2018-05-26T16:46:54.855Z,97219.86
2018-05-26T16:49:23.002Z,97227.45
2018-05-26T16:51:51.153Z,97219.52
2018-05-26T16:54:19.310Z,97221.89
2018-05-26T16:56:47.490Z,97220.11
2018-05-26T16:59:15.623Z,97215.73
2018-05-26T17:01:43.796Z,97216.00
2018-05-26T17:04:11.943Z,97220.65
2018-05-26T17:06:40.928Z,97222.80
2018-05-26T17:09:10.195Z,97223.64
2018-05-26T17:11:38.385Z,97221.45
2018-05-26T17:14:06.548Z,97225.66
2018-05-26T17:36:25.275Z,97228.80
2018-05-26T17:38:53.456Z,97233.75
2018-05-26T17:41:25.079Z,97227.01
2018-05-26T17:43:53.249Z,97224.55
2018-05-26T17:46:21.425Z,97221.03
2018-05-26T17:48:49.740Z,97223.77
2018-05-26T17:51:20.877Z,97224.27
2018-05-26T17:53:49.057Z,97231.70
2018-05-26T17:56:17.244Z,97232.94
2018-05-26T17:58:45.387Z,97230.61
2018-05-26T18:01:13.576Z,97232.12
2018-05-26T18:03:41.739Z,97237.47
2018-05-26T18:06:09.951Z,97234.66
2018-05-26T18:08:43.877Z,97238.08
2018-05-26T18:11:12.326Z,97238.26
2018-05-26T18:13:41.593Z,97240.59
2018-05-26T18:16:12.822Z,97241.87
2018-05-26T18:18:40.984Z,97237.96
2018-05-26T18:21:09.157Z,97237.85
2018-05-26T18:23:37.340Z,97251.13
2018-05-26T18:26:05.502Z,97249.23
2018-05-26T18:28:33.702Z,97249.43
2018-05-26T18:31:01.968Z,97246.67
2018-05-26T18:33:30.119Z,97250.93
2018-05-26T18:35:58.262Z,97255.18
2018-05-26T18:38:26.440Z,97253.78
2018-05-26T18:40:54.620Z,97257.02
2018-05-26T18:43:22.782Z,97255.10
2018-05-26T18:45:50.965Z,97250.23
2018-05-26T18:48:19.120Z,97249.56
2018-05-26T18:50:47.407Z,97261.77
2018-05-26T18:53:15.566Z,97263.67
2018-05-26T18:55:43.760Z,97268.64
2018-05-26T18:58:21.787Z,97271.43
2018-05-26T19:00:49.962Z,97271.61
2018-05-26T19:03:21.472Z,97270.05
2018-05-26T19:05:49.676Z,97271.14
2018-05-26T19:08:17.832Z,97272.59
2018-05-26T19:10:46.033Z,97269.25
2018-05-26T19:13:14.212Z,97269.89
2018-05-26T19:15:42.362Z,97269.62
2018-05-26T19:18:10.511Z,97282.28
2018-05-26T19:20:38.958Z,97282.91
2018-05-26T19:23:07.141Z,97286.09
2018-05-26T19:25:35.313Z,97288.80
2018-05-26T19:28:03.498Z,97294.53
2018-05-26T19:30:31.673Z,97299.05
2018-05-26T19:32:59.841Z,97304.17
2018-05-26T19:35:27.992Z,97306.52
2018-05-26T19:38:02.661Z,97307.95
2018-05-26T19:40:30.844Z,97306.09
2018-05-26T19:42:59.003Z,97312.30
2018-05-26T19:45:28.217Z,97316.73
2018-05-26T19:47:56.555Z,97316.48
2018-05-26T19:50:24.741Z,97322.12
2018-05-26T19:52:52.883Z,97317.45
2018-05-26T19:55:21.069Z,97317.55
2018-05-26T19:57:49.239Z,97318.96
2018-05-26T20:00:19.088Z,97328.08
2018-05-26T20:02:47.281Z,97324.34
2018-05-26T20:05:16.152Z,97323.62
2018-05-26T20:07:44.329Z,97325.89
2018-05-26T20:10:12.503Z,97324.65
2018-05-26T20:12:40.671Z,97324.30
2018-05-26T20:15:15.051Z,97330.09
2018-05-26T20:17:43.230Z,97335.41
2018-05-26T20:20:11.390Z,97330.42
2018-05-26T20:22:39.593Z,97331.44
2018-05-26T20:25:08.608Z,97333.75
2018-05-26T20:27:36.799Z,97335.59
2018-05-26T20:30:04.967Z,97343.47
2018-05-26T20:32:33.148Z,97350.45
2018-05-26T20:35:01.308Z,97353.07
2018-05-26T20:37:29.504Z,97361.33
2018-05-26T20:39:57.658Z,97349.39
2018-05-26T20:42:25.796Z,97351.22
2018-05-26T20:44:53.994Z,97352.15
2018-05-26T20:47:24.525Z,97350.97
2018-05-26T20:49:52.680Z,97349.78
2018-05-26T20:52:20.853Z,97353.26
2018-05-26T20:54:49.030Z,97354.61
2018-05-26T20:57:17.199Z,97357.61
2018-05-26T20:59:45.412Z,97358.97
2018-05-26T21:04:46.382Z,97366.04
2018-05-26T21:07:14.558Z,97362.24
2018-05-26T21:09:42.744Z,97366.23
2018-05-26T21:12:14.386Z,97365.91
2018-05-26T21:14:42.582Z,97364.25
2018-05-26T21:17:11.493Z,97366.86
2018-05-26T21:19:39.809Z,97377.64
2018-05-26T21:22:07.991Z,97364.41
2018-05-26T21:24:36.173Z,97368.36
2018-05-26T21:27:04.349Z,97363.28
2018-05-26T21:29:32.516Z,97359.91
2018-05-26T21:32:00.705Z,97361.26
2018-05-26T21:34:30.758Z,97356.58
2018-05-26T21:36:58.935Z,97358.78
2018-05-26T21:39:30.715Z,97364.75
2018-05-26T21:41:58.884Z,97363.52
2018-05-26T21:44:31.034Z,97366.52
2018-05-26T21:46:59.239Z,97364.84
2018-05-26T21:49:27.530Z,97366.61
2018-05-26T21:51:55.701Z,97364.10
2018-05-26T21:54:23.988Z,97364.16
2018-05-26T21:56:52.167Z,97359.93
2018-05-26T21:59:20.714Z,97360.81
2018-05-26T22:01:48.888Z,97358.30
2018-05-26T22:04:17.082Z,97360.07
2018-05-26T22:06:45.278Z,97363.58
2018-05-26T22:09:13.454Z,97351.62
2018-05-26T22:11:41.617Z,97349.50
2018-05-26T22:14:09.809Z,97357.19
2018-05-26T22:16:38.009Z,97356.78
2018-05-26T22:19:06.252Z,97360.27
2018-05-26T22:21:34.423Z,97359.48
2018-05-26T22:24:02.595Z,97359.56
2018-05-26T22:26:31.566Z,97366.92
2018-05-26T22:28:59.771Z,97362.69
2018-05-26T22:31:27.933Z,97366.64
2018-05-26T22:33:56.114Z,97361.61
2018-05-26T22:36:24.303Z,97360.40
2018-05-26T22:38:52.522Z,97362.61
2018-05-26T22:41:20.865Z,97362.63
2018-05-26T22:43:49.863Z,97364.84
2018-05-26T22:46:18.150Z,97361.00
2018-05-26T22:48:46.309Z,97371.75
2018-05-26T22:51:14.548Z,97374.77
2018-05-26T22:53:46.655Z,97372.63
2018-05-26T22:56:16.123Z,97376.10
2018-05-26T22:58:44.277Z,97376.14
2018-05-26T23:01:22.900Z,97378.82
2018-05-26T23:03:51.085Z,97381.39
2018-05-26T23:06:19.257Z,97371.14
2018-05-26T23:08:47.482Z,97374.16
2018-05-26T23:11:17.026Z,97377.17
2018-05-26T23:13:45.961Z,97366.95
2018-05-26T23:16:14.133Z,97365.30
2018-05-26T23:18:42.338Z,97363.63
2018-05-26T23:21:11.660Z,97369.25
2018-05-26T23:23:39.861Z,97366.27
2018-05-26T23:28:56.422Z,97360.70
2018-05-26T23:31:24.578Z,97361.59
2018-05-26T23:33:52.841Z,97354.75
2018-05-26T23:36:21.008Z,97348.34
2018-05-26T23:38:50.274Z,97347.45
2018-05-26T23:41:18.508Z,97343.20
2018-05-26T23:43:46.716Z,97344.53
2018-05-26T23:46:14.892Z,97335.10
2018-05-26T23:48:43.070Z,97332.10
2018-05-26T23:51:13.043Z,97323.58
2018-05-26T23:53:41.219Z,97321.44
2018-05-26T23:56:09.409Z,97323.17
2018-05-26T23:58:40.216Z,97323.19
